Etusivu
METAR-TAF:

METAR-TAF

Lentoasemat :

Geneven kansainvälinen lentoasema

Geneve, Sveitsi

Leveyspiiri: 46-15N, Pituuspiiri: 006-08E, korkeus merenpinnasta: 420 m

Tämänhetkinen sää

Tämä raportti tehtiin 27 minuuttia sitten, kello 04.20 UTC
Tuuli 4 kn pohjoisesta/koillisesta
Lämpötila 0°C
Kosteus 69%
Ilmanpaine 1014 hPa
Näkyvyys 10 km tai enemmän
Hajanaisia pilviä 2700 ft:n korkeudessa

METAR: LSGG 130420Z AUTO 03004KT 9999 SCT027 M00/M05 Q1014 NOSIG

Aika: 05:47 (04:47 UTC)

Sääennuste

Tämä raportti tehtiin 2 tuntia ja 22 minuuttia sitten, kello 02.25 UTC
Ennuste voimassa 13. päivästä klo 03 UTC - 14. päivään klo 09 UTC
Tuuli 6 kn koillisesta
Näkyvyys 10 km tai enemmän
Hajonneita pilviä 3000 ft:n korkeudessa

TAF: LSGG 130225Z 1303/1409 05006KT 9999 BKN030 TX03/1314Z TNM01/1306Z TNM01/1406Z

Säähavainnot ja -ennusteet yli 4000 lentoasemalta (METAR- ja TAF-raportit).

Käytössä olevat sääasemat on merkitty karttaan keltaisilla ja punaisilla pisteillä.

Aseta hiiri pisteen päälle nähdäksesi sääaseman nimen.

Klikkaa sitten nähdäksesi säähavainnot ja -ennusteet.

Kartan vaihtaminen: klikkaa mustalla rastilla varustettuja vihreitä pisteitä, niin voit zoomata sisään; viivalla varustettua vihreää pistettä, niin voit zoomata ulos tai vihreitä nuolia, niin pääset viereisille kartoille.


METAR-TAF: